Terminal Aerodrome Forecast
Issued by NWS Sioux Falls, SD

Home | Current Version | Previous Version | Graphics & Text | Print | Product List | Glossary On
Versions: 1 2 3 4 5 6 7 8 9 10 11 12 13 14 15 16 17 18 19 20 21 22 23
000
FTUS43 KFSD 312320
TAFSUX
TAF
KSUX 312320Z 0100/0124 18006KT P6SM SKC
     FM010400 12008KT P6SM SKC WS010/19038KT
     FM011200 18020G28KT P6SM SCT100
     FM011700 22020G32KT P6SM SCT030 BKN100
     FM012000 22023G33KT P6SM VCTS SCT040CB BKN100=

USA.gov is the U.S. government's official web portal to all federal, state and local government web resources and services.